Terminal Aerodrome Forecast
Issued by NWS Greer, SC

Home | Current Version | Previous Version | Text Only | Print | Product List | Glossary On
Versions: 1 2 3 4 5 6 7 8 9 10 11 12 13 14 15 16 17 18 19 20 21 22 23 24 25 26 27 28 29 30 31 32 33 34 35 36 37 38 39 40 41 42 43
000
FTUS42 KGSP 250540
TAFAVL
TAF
KAVL 250540Z 2506/2606 17003KT P6SM VCSH SCT015 OVC023
     FM250800 15003KT 5SM BR VCSH SCT007 OVC012
      TEMPO 2508/2512 2SM BR OVC006
     FM251400 17004KT 6SM BR VCSH SCT008 BKN020
     FM251600 18006KT P6SM VCSH BKN025 PROB30 2517/2523 4SM -TSRA
      OVC015CB
     FM260100 16004KT P6SM -SHRA SCT012 BKN024=

USA.gov is the U.S. government's official web portal to all federal, state and local government web resources and services.